VOBG/BLR METAR and TAF weather

Enter ICAO airport designator
Station Type Date Time Source
VOBG METAR 2020/01/19 00:30 UTC NOAA

VOBG 190030Z 13006KT 4000 BR SCT010 SCT080 20/20 Q1016 NOSIG


Station Type Date Time Source
VOBG Decoded METAR 2020/01/19 00:30 UTC NOAA

Bangalore / Hindustan, India (VOBG) 12-57N 077-40E
Jan 18, 2020 - 07:30 PM EST / 2020.01.19 0030 UTC
Wind: from the SE (130 degrees) at 7 MPH (6 KT):0
Visibility: 2 mile(s):0
Sky conditions: partly cloudy
Weather: mist
Temperature: 68 F (20 C)
Dew Point: 68 F (20 C)
Relative Humidity: 100%
Pressure (altimeter): 30.00 in. Hg (1016 hPa)
ob: VOBG 190030Z 13006KT 4000 BR SCT010 SCT080 20/20 Q1016 NOSIG
cycle: 0

Station Type Date Time Source
VOBG TAF 2020/01/13 00:00 UTC NOAA

TAF COR VOBG 132300Z 1400/1409 11005KT 1000 MIFG BKN006
TEMPO 1400/1403 0800 FG BKN004 SCT010
BECMG 1403/1404 3000 BR SCT008
BECMG 1405/1406 6000 SCT012

Example: see airport list